Overview Statistics Trail Chart Weather Telemetry Raw packets
 

This is the latest recevied weather packets stored in our database for station/object SQ9SMC-13. If no packets are shown the sender has not sent any weather packets the latest 10 day(s).

<< 36 37 38 39 40 41 42 >>
Time Temp. Humidity Pressure Rain* Wind** Luminosity Snow
1777442702 4.44° C 60% 1027.9 hPa 0 mm - 227 W/m² -
1777442403 3.33° C 62% 1027.7 hPa 0 mm - 218 W/m² -
1777442103 3.33° C 63% 1027.8 hPa 0 mm - 151 W/m² -
1777441803 3.89° C 62% 1027.6 hPa 0 mm - 83 W/m² -
1777441504 4.44° C 61% 1027.6 hPa 0 mm - 164 W/m² -
1777441203 4.44° C 62% 1027.7 hPa 0 mm - 164 W/m² -
1777440906 3.89° C 64% 1027.5 hPa 0 mm - 125 W/m² -
1777440605 3.33° C 66% 1027.7 hPa 0 mm - 77 W/m² -
1777440303 3.33° C 67% 1027.6 hPa 0 mm - 143 W/m² -
1777440003 2.78° C 69% 1027.4 hPa 0 mm - 93 W/m² -
1777439706 2.22° C 73% 1027.4 hPa 0 mm - 137 W/m² -
1777439405 1.67° C 76% 1027.3 hPa 0 mm - 84 W/m² -
1777439102 1.11° C 76% 1027.2 hPa 0 mm - 70 W/m² -
1777438804 0.56° C 77% 1027.2 hPa 0 mm - 65 W/m² -
1777438507 0.56° C 77% 1027.2 hPa 0 mm - 52 W/m² -
1777438203 0.56° C 78% 1027.3 hPa 0 mm - 45 W/m² -
1777437903 0.56° C 78% 1027.2 hPa 0 mm - 41 W/m² -
1777437603 0° C 79% 1027.2 hPa 0 mm - 38 W/m² -
1777437303 0° C 80% 1027.2 hPa 0 mm - 33 W/m² -
1777437002 -0.56° C 81% 1027.1 hPa 0 mm - 29 W/m² -
1777436702 -0.56° C 82% 1027 hPa 0 mm - 27 W/m² -
1777436405 -1.11° C 84% 1026.9 hPa 0 mm - 23 W/m² -
1777436102 -1.11° C 87% 1026.9 hPa 0 mm - 20 W/m² -
1777435804 -1.67° C 88% 1026.8 hPa 0 mm - 18 W/m² -
1777435505 -2.22° C 89% 1026.8 hPa 0 mm - 17 W/m² -

* Rain latest hour (hover to see other rain measurements)
** Current wind speed in m/s (hover to see current wind gust speed)